NO-0010 weather

Graundalen
Snåsa, Nord-Trøndelag, Norway

Public forecast

Using degrees Celsius for public forecast. Weather courtesy of forecast.io.

Closest aviation weather report (METAR) to Graundalen

Closest report is Namsos Høknesøra Airport, 39.7 nm (73.5 km) NW. Retrieved 2020/04/02 17:50 UTC (22 minutes ago):

ENNM 021750Z 24005KT 9999 VCSH SCT020 BKN035 01/M00 Q0973

Closest aviation forecast (TAF) to Graundalen

Closest forecast is Trondheim Airport Værnes, 57.5 nm (106.5 km) SW. Retrieved 2020/04/02 18:57 UTC (0 seconds ago):

TAF ENVA 021700Z 0218/0318 27015KT 9999 -SHSNRA FEW015TCU BKN035 TEMPO 0218/0318 30020G30KT 0800 SHSNGS VV006 PROB30 TEMPO 0221/0306 TS